sensor_id;sensor_type;location;lat;lon;timestamp;P1;durP1;ratioP1;P2;durP2;ratioP2
21643;SDS011;10983;51.982;9.226;2023-02-19T00:01:33;2.30;;;2.13;;
21643;SDS011;10983;51.982;9.226;2023-02-19T00:04:04;1.52;;;0.80;;
21643;SDS011;10983;51.982;9.226;2023-02-19T00:06:33;2.15;;;2.03;;
21643;SDS011;10983;51.982;9.226;2023-02-19T00:09:02;6.13;;;3.92;;
21643;SDS011;10983;51.982;9.226;2023-02-19T00:11:31;3.70;;;1.65;;
21643;SDS011;10983;51.982;9.226;2023-02-19T00:14:00;1.30;;;1.20;;
21643;SDS011;10983;51.982;9.226;2023-02-19T00:16:30;2.17;;;1.27;;
21643;SDS011;10983;51.982;9.226;2023-02-19T00:19:00;0.45;;;0.43;;
21643;SDS011;10983;51.982;9.226;2023-02-19T00:21:30;1.75;;;1.65;;
21643;SDS011;10983;51.982;9.226;2023-02-19T00:23:59;4.78;;;2.63;;
21643;SDS011;10983;51.982;9.226;2023-02-19T00:26:28;5.88;;;3.42;;
21643;SDS011;10983;51.982;9.226;2023-02-19T00:28:56;1.10;;;1.05;;
21643;SDS011;10983;51.982;9.226;2023-02-19T00:31:24;4.32;;;3.92;;
21643;SDS011;10983;51.982;9.226;2023-02-19T00:33:56;2.38;;;1.85;;
21643;SDS011;10983;51.982;9.226;2023-02-19T00:36:25;2.60;;;1.95;;
21643;SDS011;10983;51.982;9.226;2023-02-19T00:38:55;1.08;;;1.08;;
21643;SDS011;10983;51.982;9.226;2023-02-19T00:41:23;1.67;;;1.58;;
21643;SDS011;10983;51.982;9.226;2023-02-19T00:43:52;3.75;;;2.05;;
21643;SDS011;10983;51.982;9.226;2023-02-19T00:46:20;2.22;;;2.08;;
21643;SDS011;10983;51.982;9.226;2023-02-19T00:48:49;0.50;;;0.50;;
21643;SDS011;10983;51.982;9.226;2023-02-19T00:51:17;3.30;;;2.08;;
21643;SDS011;10983;51.982;9.226;2023-02-19T00:53:46;2.80;;;1.95;;
21643;SDS011;10983;51.982;9.226;2023-02-19T00:56:17;0.30;;;0.30;;
21643;SDS011;10983;51.982;9.226;2023-02-19T00:58:45;0.28;;;0.28;;
21643;SDS011;10983;51.982;9.226;2023-02-19T01:01:13;4.25;;;1.35;;
21643;SDS011;10983;51.982;9.226;2023-02-19T01:03:41;3.40;;;2.58;;
21643;SDS011;10983;51.982;9.226;2023-02-19T01:06:09;1.40;;;1.05;;
21643;SDS011;10983;51.982;9.226;2023-02-19T01:08:39;2.60;;;1.17;;
21643;SDS011;10983;51.982;9.226;2023-02-19T01:11:07;1.20;;;0.80;;
21643;SDS011;10983;51.982;9.226;2023-02-19T01:13:37;2.17;;;1.77;;
21643;SDS011;10983;51.982;9.226;2023-02-19T01:16:05;1.08;;;0.93;;
21643;SDS011;10983;51.982;9.226;2023-02-19T01:18:35;1.27;;;1.17;;
21643;SDS011;10983;51.982;9.226;2023-02-19T01:21:04;2.40;;;1.88;;
21643;SDS011;10983;51.982;9.226;2023-02-19T01:23:33;1.45;;;1.35;;
21643;SDS011;10983;51.982;9.226;2023-02-19T01:26:04;1.85;;;1.40;;
21643;SDS011;10983;51.982;9.226;2023-02-19T01:28:33;1.75;;;0.52;;
21643;SDS011;10983;51.982;9.226;2023-02-19T01:31:02;0.05;;;0.05;;
21643;SDS011;10983;51.982;9.226;2023-02-19T01:33:31;0.03;;;0.03;;
21643;SDS011;10983;51.982;9.226;2023-02-19T01:36:01;0.80;;;0.80;;
21643;SDS011;10983;51.982;9.226;2023-02-19T01:38:29;2.08;;;1.05;;
21643;SDS011;10983;51.982;9.226;2023-02-19T01:40:57;2.13;;;1.13;;
21643;SDS011;10983;51.982;9.226;2023-02-19T01:43:26;0.10;;;0.10;;
21643;SDS011;10983;51.982;9.226;2023-02-19T01:45:54;0.30;;;0.30;;
21643;SDS011;10983;51.982;9.226;2023-02-19T01:48:23;1.75;;;1.45;;
21643;SDS011;10983;51.982;9.226;2023-02-19T01:50:54;2.30;;;2.10;;
21643;SDS011;10983;51.982;9.226;2023-02-19T01:53:26;1.15;;;1.10;;
21643;SDS011;10983;51.982;9.226;2023-02-19T01:55:57;0.70;;;0.65;;
21643;SDS011;10983;51.982;9.226;2023-02-19T01:58:27;1.75;;;1.65;;
21643;SDS011;10983;51.982;9.226;2023-02-19T02:00:57;1.48;;;0.90;;
21643;SDS011;10983;51.982;9.226;2023-02-19T02:03:28;0.60;;;0.60;;
21643;SDS011;10983;51.982;9.226;2023-02-19T02:05:58;1.38;;;1.27;;
21643;SDS011;10983;51.982;9.226;2023-02-19T02:08:28;2.15;;;1.83;;
21643;SDS011;10983;51.982;9.226;2023-02-19T02:11:17;1.25;;;1.15;;
21643;SDS011;10983;51.982;9.226;2023-02-19T02:13:46;2.83;;;2.28;;
21643;SDS011;10983;51.982;9.226;2023-02-19T02:16:16;0.43;;;0.43;;
21643;SDS011;10983;51.982;9.226;2023-02-19T02:18:53;2.90;;;2.70;;
21643;SDS011;10983;51.982;9.226;2023-02-19T02:21:35;1.38;;;1.27;;
21643;SDS011;10983;51.982;9.226;2023-02-19T02:24:40;1.35;;;1.25;;
21643;SDS011;10983;51.982;9.226;2023-02-19T02:27:27;2.83;;;2.00;;
21643;SDS011;10983;51.982;9.226;2023-02-19T02:30:09;5.10;;;3.30;;
21643;SDS011;10983;51.982;9.226;2023-02-19T02:32:44;3.28;;;2.53;;
21643;SDS011;10983;51.982;9.226;2023-02-19T02:35:20;1.88;;;1.63;;
21643;SDS011;10983;51.982;9.226;2023-02-19T02:37:51;2.22;;;2.03;;
21643;SDS011;10983;51.982;9.226;2023-02-19T02:40:23;3.85;;;3.30;;
21643;SDS011;10983;51.982;9.226;2023-02-19T02:42:50;2.78;;;2.47;;
21643;SDS011;10983;51.982;9.226;2023-02-19T02:45:24;2.33;;;2.13;;
21643;SDS011;10983;51.982;9.226;2023-02-19T02:48:06;6.95;;;3.40;;
21643;SDS011;10983;51.982;9.226;2023-02-19T02:50:39;6.72;;;3.13;;
21643;SDS011;10983;51.982;9.226;2023-02-19T02:53:10;2.08;;;1.33;;
21643;SDS011;10983;51.982;9.226;2023-02-19T02:55:56;6.40;;;3.28;;
21643;SDS011;10983;51.982;9.226;2023-02-19T02:58:25;3.05;;;1.92;;
21643;SDS011;10983;51.982;9.226;2023-02-19T03:00:57;4.97;;;3.65;;
21643;SDS011;10983;51.982;9.226;2023-02-19T03:03:47;5.47;;;4.20;;
21643;SDS011;10983;51.982;9.226;2023-02-19T03:06:19;1.75;;;1.65;;
21643;SDS011;10983;51.982;9.226;2023-02-19T03:08:52;5.55;;;3.75;;
21643;SDS011;10983;51.982;9.226;2023-02-19T03:11:22;10.07;;;4.57;;
21643;SDS011;10983;51.982;9.226;2023-02-19T03:14:05;3.53;;;3.22;;
21643;SDS011;10983;51.982;9.226;2023-02-19T03:16:56;7.00;;;4.03;;
21643;SDS011;10983;51.982;9.226;2023-02-19T03:19:47;9.35;;;5.10;;
21643;SDS011;10983;51.982;9.226;2023-02-19T03:22:19;8.18;;;4.47;;
21643;SDS011;10983;51.982;9.226;2023-02-19T03:24:52;6.65;;;2.83;;
21643;SDS011;10983;51.982;9.226;2023-02-19T03:27:40;6.80;;;6.03;;
21643;SDS011;10983;51.982;9.226;2023-02-19T03:30:10;3.25;;;2.78;;
21643;SDS011;10983;51.982;9.226;2023-02-19T03:32:43;2.42;;;2.25;;
21643;SDS011;10983;51.982;9.226;2023-02-19T03:35:15;3.83;;;2.47;;
21643;SDS011;10983;51.982;9.226;2023-02-19T03:37:48;4.80;;;3.70;;
21643;SDS011;10983;51.982;9.226;2023-02-19T03:42:50;8.68;;;2.88;;
21643;SDS011;10983;51.982;9.226;2023-02-19T03:45:28;4.63;;;4.20;;
21643;SDS011;10983;51.982;9.226;2023-02-19T03:50:54;10.25;;;6.88;;
21643;SDS011;10983;51.982;9.226;2023-02-19T03:53:33;4.65;;;3.47;;
21643;SDS011;10983;51.982;9.226;2023-02-19T03:56:10;14.30;;;10.57;;
21643;SDS011;10983;51.982;9.226;2023-02-19T03:58:43;10.18;;;6.03;;
21643;SDS011;10983;51.982;9.226;2023-02-19T04:01:23;11.07;;;7.80;;
21643;SDS011;10983;51.982;9.226;2023-02-19T04:03:58;9.90;;;7.25;;
21643;SDS011;10983;51.982;9.226;2023-02-19T04:06:30;18.40;;;10.57;;
21643;SDS011;10983;51.982;9.226;2023-02-19T04:09:00;7.78;;;6.70;;
21643;SDS011;10983;51.982;9.226;2023-02-19T04:11:31;4.85;;;4.00;;
21643;SDS011;10983;51.982;9.226;2023-02-19T04:14:00;8.70;;;5.53;;
21643;SDS011;10983;51.982;9.226;2023-02-19T04:16:31;16.15;;;5.18;;
21643;SDS011;10983;51.982;9.226;2023-02-19T04:19:03;7.40;;;4.45;;
21643;SDS011;10983;51.982;9.226;2023-02-19T04:21:35;6.68;;;4.60;;
21643;SDS011;10983;51.982;9.226;2023-02-19T04:24:05;4.53;;;3.88;;
21643;SDS011;10983;51.982;9.226;2023-02-19T04:26:36;6.93;;;4.88;;
21643;SDS011;10983;51.982;9.226;2023-02-19T04:29:03;5.57;;;4.88;;
21643;SDS011;10983;51.982;9.226;2023-02-19T04:31:32;8.77;;;6.38;;
21643;SDS011;10983;51.982;9.226;2023-02-19T04:34:03;4.15;;;3.42;;
21643;SDS011;10983;51.982;9.226;2023-02-19T04:36:30;7.45;;;5.40;;
21643;SDS011;10983;51.982;9.226;2023-02-19T04:38:58;13.75;;;8.25;;
21643;SDS011;10983;51.982;9.226;2023-02-19T04:41:26;10.73;;;6.68;;
21643;SDS011;10983;51.982;9.226;2023-02-19T04:43:53;7.15;;;5.20;;
21643;SDS011;10983;51.982;9.226;2023-02-19T04:46:21;7.00;;;6.30;;
21643;SDS011;10983;51.982;9.226;2023-02-19T04:48:51;7.18;;;4.95;;
21643;SDS011;10983;51.982;9.226;2023-02-19T04:51:20;9.45;;;4.97;;
21643;SDS011;10983;51.982;9.226;2023-02-19T04:53:47;11.80;;;8.02;;
21643;SDS011;10983;51.982;9.226;2023-02-19T04:56:15;5.60;;;5.05;;
21643;SDS011;10983;51.982;9.226;2023-02-19T04:58:43;12.30;;;7.85;;
21643;SDS011;10983;51.982;9.226;2023-02-19T05:01:11;7.68;;;6.07;;
21643;SDS011;10983;51.982;9.226;2023-02-19T05:03:40;13.50;;;6.13;;
21643;SDS011;10983;51.982;9.226;2023-02-19T05:06:08;5.03;;;4.15;;
21643;SDS011;10983;51.982;9.226;2023-02-19T05:08:38;6.40;;;4.55;;
21643;SDS011;10983;51.982;9.226;2023-02-19T05:11:07;11.55;;;6.93;;
21643;SDS011;10983;51.982;9.226;2023-02-19T05:13:38;7.93;;;5.47;;
21643;SDS011;10983;51.982;9.226;2023-02-19T05:16:06;2.75;;;2.28;;
21643;SDS011;10983;51.982;9.226;2023-02-19T05:21:06;14.88;;;9.38;;
21643;SDS011;10983;51.982;9.226;2023-02-19T05:23:35;7.20;;;4.80;;
21643;SDS011;10983;51.982;9.226;2023-02-19T05:26:05;5.25;;;4.25;;
21643;SDS011;10983;51.982;9.226;2023-02-19T05:28:34;6.45;;;3.30;;
21643;SDS011;10983;51.982;9.226;2023-02-19T05:31:03;10.75;;;6.45;;
21643;SDS011;10983;51.982;9.226;2023-02-19T05:33:32;6.82;;;5.40;;
21643;SDS011;10983;51.982;9.226;2023-02-19T05:36:03;19.17;;;8.38;;
21643;SDS011;10983;51.982;9.226;2023-02-19T05:38:33;6.38;;;4.13;;
21643;SDS011;10983;51.982;9.226;2023-02-19T05:41:09;4.88;;;3.20;;
21643;SDS011;10983;51.982;9.226;2023-02-19T05:43:39;7.32;;;4.40;;
21643;SDS011;10983;51.982;9.226;2023-02-19T05:46:08;3.72;;;3.03;;
21643;SDS011;10983;51.982;9.226;2023-02-19T05:48:36;7.15;;;4.45;;
21643;SDS011;10983;51.982;9.226;2023-02-19T05:51:05;6.50;;;5.05;;
21643;SDS011;10983;51.982;9.226;2023-02-19T05:53:41;6.38;;;4.22;;
21643;SDS011;10983;51.982;9.226;2023-02-19T05:56:22;9.30;;;6.43;;
21643;SDS011;10983;51.982;9.226;2023-02-19T05:58:53;5.57;;;5.10;;
21643;SDS011;10983;51.982;9.226;2023-02-19T06:01:22;6.38;;;4.45;;
21643;SDS011;10983;51.982;9.226;2023-02-19T06:03:52;2.70;;;2.40;;
21643;SDS011;10983;51.982;9.226;2023-02-19T06:06:24;7.53;;;5.93;;
21643;SDS011;10983;51.982;9.226;2023-02-19T06:08:52;8.65;;;4.72;;
21643;SDS011;10983;51.982;9.226;2023-02-19T06:11:23;8.00;;;3.70;;
21643;SDS011;10983;51.982;9.226;2023-02-19T06:13:50;2.40;;;2.22;;
21643;SDS011;10983;51.982;9.226;2023-02-19T06:16:18;1.13;;;0.98;;
21643;SDS011;10983;51.982;9.226;2023-02-19T06:18:47;2.20;;;1.10;;
21643;SDS011;10983;51.982;9.226;2023-02-19T06:21:16;0.57;;;0.57;;
21643;SDS011;10983;51.982;9.226;2023-02-19T06:23:44;0.20;;;0.20;;
21643;SDS011;10983;51.982;9.226;2023-02-19T06:26:14;0.30;;;0.30;;
21643;SDS011;10983;51.982;9.226;2023-02-19T06:28:45;0.20;;;0.20;;
21643;SDS011;10983;51.982;9.226;2023-02-19T06:31:13;0.55;;;0.55;;
21643;SDS011;10983;51.982;9.226;2023-02-19T06:33:42;0.35;;;0.32;;
21643;SDS011;10983;51.982;9.226;2023-02-19T06:36:10;0.47;;;0.47;;
21643;SDS011;10983;51.982;9.226;2023-02-19T06:38:39;0.20;;;0.20;;
21643;SDS011;10983;51.982;9.226;2023-02-19T06:41:07;0.40;;;0.40;;
21643;SDS011;10983;51.982;9.226;2023-02-19T06:43:36;0.20;;;0.20;;
21643;SDS011;10983;51.982;9.226;2023-02-19T06:46:05;0.43;;;0.38;;
21643;SDS011;10983;51.982;9.226;2023-02-19T06:48:33;0.55;;;0.55;;
21643;SDS011;10983;51.982;9.226;2023-02-19T06:51:01;0.30;;;0.30;;
21643;SDS011;10983;51.982;9.226;2023-02-19T06:53:29;0.15;;;0.15;;
21643;SDS011;10983;51.982;9.226;2023-02-19T06:55:57;1.48;;;0.30;;
21643;SDS011;10983;51.982;9.226;2023-02-19T06:58:26;0.40;;;0.40;;
21643;SDS011;10983;51.982;9.226;2023-02-19T07:00:54;0.55;;;0.55;;
21643;SDS011;10983;51.982;9.226;2023-02-19T07:03:23;4.28;;;1.08;;
21643;SDS011;10983;51.982;9.226;2023-02-19T07:05:51;0.73;;;0.43;;
21643;SDS011;10983;51.982;9.226;2023-02-19T07:08:19;0.10;;;0.10;;
21643;SDS011;10983;51.982;9.226;2023-02-19T07:10:52;0.95;;;0.80;;
21643;SDS011;10983;51.982;9.226;2023-02-19T07:13:21;0.20;;;0.20;;
21643;SDS011;10983;51.982;9.226;2023-02-19T07:15:48;0.30;;;0.30;;
21643;SDS011;10983;51.982;9.226;2023-02-19T07:18:17;0.10;;;0.10;;
21643;SDS011;10983;51.982;9.226;2023-02-19T07:20:49;0.52;;;0.52;;
21643;SDS011;10983;51.982;9.226;2023-02-19T07:23:17;0.73;;;0.73;;
21643;SDS011;10983;51.982;9.226;2023-02-19T07:25:44;0.10;;;0.10;;
21643;SDS011;10983;51.982;9.226;2023-02-19T07:28:11;1.77;;;1.55;;
21643;SDS011;10983;51.982;9.226;2023-02-19T07:30:39;0.95;;;0.95;;
21643;SDS011;10983;51.982;9.226;2023-02-19T07:33:06;0.17;;;0.17;;
21643;SDS011;10983;51.982;9.226;2023-02-19T07:35:37;0.32;;;0.32;;
21643;SDS011;10983;51.982;9.226;2023-02-19T07:38:15;0.20;;;0.20;;
21643;SDS011;10983;51.982;9.226;2023-02-19T07:40:50;0.20;;;0.20;;
21643;SDS011;10983;51.982;9.226;2023-02-19T07:43:18;0.30;;;0.30;;
21643;SDS011;10983;51.982;9.226;2023-02-19T07:45:47;0.22;;;0.22;;
21643;SDS011;10983;51.982;9.226;2023-02-19T07:48:16;0.10;;;0.10;;
21643;SDS011;10983;51.982;9.226;2023-02-19T07:50:49;0.93;;;0.68;;
21643;SDS011;10983;51.982;9.226;2023-02-19T07:53:19;0.30;;;0.30;;
21643;SDS011;10983;51.982;9.226;2023-02-19T07:55:46;0.40;;;0.40;;
21643;SDS011;10983;51.982;9.226;2023-02-19T07:58:14;0.15;;;0.15;;
21643;SDS011;10983;51.982;9.226;2023-02-19T08:00:42;0.28;;;0.28;;
21643;SDS011;10983;51.982;9.226;2023-02-19T08:03:10;0.10;;;0.10;;
21643;SDS011;10983;51.982;9.226;2023-02-19T08:05:38;0.10;;;0.10;;
21643;SDS011;10983;51.982;9.226;2023-02-19T08:08:07;0.80;;;0.43;;
21643;SDS011;10983;51.982;9.226;2023-02-19T08:10:37;0.30;;;0.30;;
21643;SDS011;10983;51.982;9.226;2023-02-19T08:13:22;0.15;;;0.15;;
21643;SDS011;10983;51.982;9.226;2023-02-19T08:15:52;0.30;;;0.30;;
21643;SDS011;10983;51.982;9.226;2023-02-19T08:18:32;0.68;;;0.68;;
21643;SDS011;10983;51.982;9.226;2023-02-19T08:21:00;0.50;;;0.50;;
21643;SDS011;10983;51.982;9.226;2023-02-19T08:23:28;0.20;;;0.20;;
21643;SDS011;10983;51.982;9.226;2023-02-19T08:25:57;0.32;;;0.32;;
21643;SDS011;10983;51.982;9.226;2023-02-19T08:28:25;0.85;;;0.85;;
21643;SDS011;10983;51.982;9.226;2023-02-19T08:30:56;0.40;;;0.40;;
21643;SDS011;10983;51.982;9.226;2023-02-19T08:33:25;0.35;;;0.35;;
21643;SDS011;10983;51.982;9.226;2023-02-19T08:35:53;0.65;;;0.65;;
21643;SDS011;10983;51.982;9.226;2023-02-19T08:38:20;0.32;;;0.32;;
21643;SDS011;10983;51.982;9.226;2023-02-19T08:40:47;0.20;;;0.20;;
21643;SDS011;10983;51.982;9.226;2023-02-19T08:43:16;0.10;;;0.10;;
21643;SDS011;10983;51.982;9.226;2023-02-19T08:45:44;0.20;;;0.20;;
21643;SDS011;10983;51.982;9.226;2023-02-19T08:48:14;0.40;;;0.40;;
21643;SDS011;10983;51.982;9.226;2023-02-19T08:50:42;0.20;;;0.20;;
21643;SDS011;10983;51.982;9.226;2023-02-19T08:53:09;0.80;;;0.77;;
21643;SDS011;10983;51.982;9.226;2023-02-19T08:55:37;0.55;;;0.55;;
21643;SDS011;10983;51.982;9.226;2023-02-19T08:58:06;0.17;;;0.17;;
21643;SDS011;10983;51.982;9.226;2023-02-19T09:00:35;0.35;;;0.30;;
21643;SDS011;10983;51.982;9.226;2023-02-19T09:03:02;0.30;;;0.30;;
21643;SDS011;10983;51.982;9.226;2023-02-19T09:05:30;0.20;;;0.20;;
21643;SDS011;10983;51.982;9.226;2023-02-19T09:07:57;0.20;;;0.20;;
21643;SDS011;10983;51.982;9.226;2023-02-19T09:10:27;0.47;;;0.47;;
21643;SDS011;10983;51.982;9.226;2023-02-19T09:12:54;0.20;;;0.20;;
21643;SDS011;10983;51.982;9.226;2023-02-19T09:15:22;0.45;;;0.45;;
21643;SDS011;10983;51.982;9.226;2023-02-19T09:17:51;0.22;;;0.22;;
21643;SDS011;10983;51.982;9.226;2023-02-19T09:20:19;0.57;;;0.55;;
21643;SDS011;10983;51.982;9.226;2023-02-19T09:22:46;0.40;;;0.40;;
21643;SDS011;10983;51.982;9.226;2023-02-19T09:25:14;1.40;;;1.02;;
21643;SDS011;10983;51.982;9.226;2023-02-19T09:27:43;0.20;;;0.20;;
21643;SDS011;10983;51.982;9.226;2023-02-19T09:30:11;0.60;;;0.60;;
21643;SDS011;10983;51.982;9.226;2023-02-19T09:32:39;0.10;;;0.10;;
21643;SDS011;10983;51.982;9.226;2023-02-19T09:35:07;0.43;;;0.43;;
21643;SDS011;10983;51.982;9.226;2023-02-19T09:37:35;0.20;;;0.20;;
21643;SDS011;10983;51.982;9.226;2023-02-19T09:40:03;2.30;;;0.93;;
21643;SDS011;10983;51.982;9.226;2023-02-19T09:42:30;3.00;;;0.57;;
21643;SDS011;10983;51.982;9.226;2023-02-19T09:44:59;0.98;;;0.93;;
21643;SDS011;10983;51.982;9.226;2023-02-19T09:47:28;4.03;;;1.10;;
21643;SDS011;10983;51.982;9.226;2023-02-19T09:49:58;0.10;;;0.10;;
21643;SDS011;10983;51.982;9.226;2023-02-19T09:52:31;0.90;;;0.90;;
21643;SDS011;10983;51.982;9.226;2023-02-19T09:55:04;1.08;;;1.00;;
21643;SDS011;10983;51.982;9.226;2023-02-19T09:57:41;0.30;;;0.30;;
21643;SDS011;10983;51.982;9.226;2023-02-19T10:00:12;2.17;;;0.52;;
21643;SDS011;10983;51.982;9.226;2023-02-19T10:02:50;0.57;;;0.40;;
21643;SDS011;10983;51.982;9.226;2023-02-19T10:05:19;0.68;;;0.68;;
21643;SDS011;10983;51.982;9.226;2023-02-19T10:07:51;0.30;;;0.30;;
21643;SDS011;10983;51.982;9.226;2023-02-19T10:10:23;0.40;;;0.40;;
21643;SDS011;10983;51.982;9.226;2023-02-19T10:12:54;0.30;;;0.30;;
21643;SDS011;10983;51.982;9.226;2023-02-19T10:15:27;2.17;;;0.55;;
21643;SDS011;10983;51.982;9.226;2023-02-19T10:20:25;1.00;;;0.73;;
21643;SDS011;10983;51.982;9.226;2023-02-19T10:22:58;0.50;;;0.50;;
21643;SDS011;10983;51.982;9.226;2023-02-19T10:25:29;1.60;;;0.45;;
21643;SDS011;10983;51.982;9.226;2023-02-19T10:27:57;0.85;;;0.52;;
21643;SDS011;10983;51.982;9.226;2023-02-19T10:30:28;0.55;;;0.55;;
21643;SDS011;10983;51.982;9.226;2023-02-19T10:32:58;1.55;;;0.95;;
21643;SDS011;10983;51.982;9.226;2023-02-19T10:35:29;0.95;;;0.60;;
21643;SDS011;10983;51.982;9.226;2023-02-19T10:38:03;0.15;;;0.15;;
21643;SDS011;10983;51.982;9.226;2023-02-19T10:40:33;0.17;;;0.17;;
21643;SDS011;10983;51.982;9.226;2023-02-19T10:43:02;0.52;;;0.52;;
21643;SDS011;10983;51.982;9.226;2023-02-19T10:45:32;0.10;;;0.10;;
21643;SDS011;10983;51.982;9.226;2023-02-19T10:48:05;0.30;;;0.30;;
21643;SDS011;10983;51.982;9.226;2023-02-19T10:50:34;0.10;;;0.10;;
21643;SDS011;10983;51.982;9.226;2023-02-19T10:53:07;0.30;;;0.30;;
21643;SDS011;10983;51.982;9.226;2023-02-19T10:55:48;0.17;;;0.17;;
21643;SDS011;10983;51.982;9.226;2023-02-19T10:58:33;0.13;;;0.13;;
21643;SDS011;10983;51.982;9.226;2023-02-19T11:01:13;0.00;;;0.00;;
21643;SDS011;10983;51.982;9.226;2023-02-19T11:03:45;0.00;;;0.00;;
21643;SDS011;10983;51.982;9.226;2023-02-19T11:06:14;0.70;;;0.68;;
21643;SDS011;10983;51.982;9.226;2023-02-19T11:08:56;0.30;;;0.30;;
21643;SDS011;10983;51.982;9.226;2023-02-19T11:11:29;0.52;;;0.52;;
21643;SDS011;10983;51.982;9.226;2023-02-19T11:13:59;0.00;;;0.00;;
21643;SDS011;10983;51.982;9.226;2023-02-19T11:16:38;0.00;;;0.00;;
21643;SDS011;10983;51.982;9.226;2023-02-19T11:19:18;0.15;;;0.15;;
21643;SDS011;10983;51.982;9.226;2023-02-19T11:21:53;0.68;;;0.68;;
21643;SDS011;10983;51.982;9.226;2023-02-19T11:24:27;0.10;;;0.10;;
21643;SDS011;10983;51.982;9.226;2023-02-19T11:26:59;0.10;;;0.10;;
21643;SDS011;10983;51.982;9.226;2023-02-19T11:29:29;0.17;;;0.17;;
21643;SDS011;10983;51.982;9.226;2023-02-19T11:32:26;0.43;;;0.43;;
21643;SDS011;10983;51.982;9.226;2023-02-19T11:35:11;0.40;;;0.40;;
21643;SDS011;10983;51.982;9.226;2023-02-19T11:37:51;0.10;;;0.10;;
21643;SDS011;10983;51.982;9.226;2023-02-19T11:40:22;0.00;;;0.00;;
21643;SDS011;10983;51.982;9.226;2023-02-19T11:42:57;0.00;;;0.00;;
21643;SDS011;10983;51.982;9.226;2023-02-19T11:45:34;0.00;;;0.00;;
21643;SDS011;10983;51.982;9.226;2023-02-19T11:48:15;0.03;;;0.03;;
21643;SDS011;10983;51.982;9.226;2023-02-19T11:50:58;0.77;;;0.35;;
21643;SDS011;10983;51.982;9.226;2023-02-19T11:53:34;0.32;;;0.30;;
21643;SDS011;10983;51.982;9.226;2023-02-19T11:56:09;0.20;;;0.20;;
21643;SDS011;10983;51.982;9.226;2023-02-19T11:58:55;0.00;;;0.00;;
21643;SDS011;10983;51.982;9.226;2023-02-19T12:01:29;0.80;;;0.40;;
21643;SDS011;10983;51.982;9.226;2023-02-19T12:04:36;0.00;;;0.00;;
21643;SDS011;10983;51.982;9.226;2023-02-19T12:10:20;0.00;;;0.00;;
21643;SDS011;10983;51.982;9.226;2023-02-19T12:12:57;0.00;;;0.00;;
21643;SDS011;10983;51.982;9.226;2023-02-19T12:19:00;0.20;;;0.20;;
21643;SDS011;10983;51.982;9.226;2023-02-19T12:21:41;0.10;;;0.10;;
21643;SDS011;10983;51.982;9.226;2023-02-19T12:24:24;0.10;;;0.10;;
21643;SDS011;10983;51.982;9.226;2023-02-19T12:27:18;0.10;;;0.10;;
21643;SDS011;10983;51.982;9.226;2023-02-19T12:29:59;0.13;;;0.13;;
21643;SDS011;10983;51.982;9.226;2023-02-19T12:32:52;0.85;;;0.85;;
21643;SDS011;10983;51.982;9.226;2023-02-19T12:35:49;0.10;;;0.10;;
21643;SDS011;10983;51.982;9.226;2023-02-19T12:38:30;0.43;;;0.43;;
21643;SDS011;10983;51.982;9.226;2023-02-19T12:41:05;0.10;;;0.10;;
21643;SDS011;10983;51.982;9.226;2023-02-19T12:43:52;0.17;;;0.17;;
21643;SDS011;10983;51.982;9.226;2023-02-19T12:46:22;0.47;;;0.47;;
21643;SDS011;10983;51.982;9.226;2023-02-19T12:48:55;0.20;;;0.20;;
21643;SDS011;10983;51.982;9.226;2023-02-19T12:51:28;0.10;;;0.10;;
21643;SDS011;10983;51.982;9.226;2023-02-19T12:54:02;0.10;;;0.10;;
21643;SDS011;10983;51.982;9.226;2023-02-19T12:56:40;0.00;;;0.00;;
21643;SDS011;10983;51.982;9.226;2023-02-19T12:59:11;0.00;;;0.00;;
21643;SDS011;10983;51.982;9.226;2023-02-19T13:01:48;0.10;;;0.10;;
21643;SDS011;10983;51.982;9.226;2023-02-19T13:04:23;0.10;;;0.10;;
21643;SDS011;10983;51.982;9.226;2023-02-19T13:07:00;0.00;;;0.00;;
21643;SDS011;10983;51.982;9.226;2023-02-19T13:09:34;0.95;;;0.82;;
21643;SDS011;10983;51.982;9.226;2023-02-19T13:14:35;0.30;;;0.30;;
21643;SDS011;10983;51.982;9.226;2023-02-19T13:19:44;0.20;;;0.20;;
21643;SDS011;10983;51.982;9.226;2023-02-19T13:22:16;0.10;;;0.10;;
21643;SDS011;10983;51.982;9.226;2023-02-19T13:25:09;0.40;;;0.40;;
21643;SDS011;10983;51.982;9.226;2023-02-19T13:27:50;0.00;;;0.00;;
21643;SDS011;10983;51.982;9.226;2023-02-19T13:30:39;0.28;;;0.28;;
21643;SDS011;10983;51.982;9.226;2023-02-19T13:33:22;0.25;;;0.25;;
21643;SDS011;10983;51.982;9.226;2023-02-19T13:36:03;0.22;;;0.22;;
21643;SDS011;10983;51.982;9.226;2023-02-19T13:38:37;9.07;;;0.95;;
21643;SDS011;10983;51.982;9.226;2023-02-19T13:41:17;0.20;;;0.20;;
21643;SDS011;10983;51.982;9.226;2023-02-19T13:43:54;0.45;;;0.45;;
21643;SDS011;10983;51.982;9.226;2023-02-19T13:46:32;10.35;;;0.68;;
21643;SDS011;10983;51.982;9.226;2023-02-19T13:51:53;3.10;;;1.50;;
21643;SDS011;10983;51.982;9.226;2023-02-19T13:54:23;0.63;;;0.63;;
21643;SDS011;10983;51.982;9.226;2023-02-19T13:59:55;0.25;;;0.25;;
21643;SDS011;10983;51.982;9.226;2023-02-19T14:02:26;0.57;;;0.57;;
21643;SDS011;10983;51.982;9.226;2023-02-19T14:04:56;0.28;;;0.28;;
21643;SDS011;10983;51.982;9.226;2023-02-19T14:07:33;0.65;;;0.65;;
21643;SDS011;10983;51.982;9.226;2023-02-19T14:13:56;0.10;;;0.10;;
21643;SDS011;10983;51.982;9.226;2023-02-19T14:28:18;0.10;;;0.10;;
21643;SDS011;10983;51.982;9.226;2023-02-19T14:30:52;0.52;;;0.52;;
21643;SDS011;10983;51.982;9.226;2023-02-19T14:33:22;0.55;;;0.55;;
21643;SDS011;10983;51.982;9.226;2023-02-19T14:35:52;0.15;;;0.15;;
21643;SDS011;10983;51.982;9.226;2023-02-19T14:38:24;0.95;;;0.82;;
21643;SDS011;10983;51.982;9.226;2023-02-19T14:40:56;0.20;;;0.20;;
21643;SDS011;10983;51.982;9.226;2023-02-19T14:43:25;0.17;;;0.17;;
21643;SDS011;10983;51.982;9.226;2023-02-19T14:45:55;0.35;;;0.35;;
21643;SDS011;10983;51.982;9.226;2023-02-19T14:48:25;0.10;;;0.10;;
21643;SDS011;10983;51.982;9.226;2023-02-19T14:50:58;2.58;;;1.23;;
21643;SDS011;10983;51.982;9.226;2023-02-19T14:53:30;0.28;;;0.28;;
21643;SDS011;10983;51.982;9.226;2023-02-19T14:56:03;0.90;;;0.70;;
21643;SDS011;10983;51.982;9.226;2023-02-19T14:58:33;0.90;;;0.70;;
21643;SDS011;10983;51.982;9.226;2023-02-19T15:01:12;5.88;;;1.38;;
21643;SDS011;10983;51.982;9.226;2023-02-19T15:03:52;0.25;;;0.25;;
21643;SDS011;10983;51.982;9.226;2023-02-19T15:06:21;0.10;;;0.10;;
21643;SDS011;10983;51.982;9.226;2023-02-19T15:08:50;2.33;;;1.95;;
21643;SDS011;10983;51.982;9.226;2023-02-19T15:11:20;0.10;;;0.10;;
21643;SDS011;10983;51.982;9.226;2023-02-19T15:13:51;0.82;;;0.82;;
21643;SDS011;10983;51.982;9.226;2023-02-19T15:16:23;1.85;;;0.68;;
21643;SDS011;10983;51.982;9.226;2023-02-19T15:18:53;0.68;;;0.68;;
21643;SDS011;10983;51.982;9.226;2023-02-19T15:21:23;0.17;;;0.17;;
21643;SDS011;10983;51.982;9.226;2023-02-19T15:23:52;0.10;;;0.10;;
21643;SDS011;10983;51.982;9.226;2023-02-19T15:26:22;0.10;;;0.10;;
21643;SDS011;10983;51.982;9.226;2023-02-19T15:28:57;0.23;;;0.23;;
21643;SDS011;10983;51.982;9.226;2023-02-19T15:31:27;0.13;;;0.13;;
21643;SDS011;10983;51.982;9.226;2023-02-19T15:33:55;0.10;;;0.10;;
21643;SDS011;10983;51.982;9.226;2023-02-19T15:36:24;0.00;;;0.00;;
21643;SDS011;10983;51.982;9.226;2023-02-19T15:38:57;0.00;;;0.00;;
21643;SDS011;10983;51.982;9.226;2023-02-19T15:41:27;0.03;;;0.03;;
21643;SDS011;10983;51.982;9.226;2023-02-19T15:44:00;0.00;;;0.00;;
21643;SDS011;10983;51.982;9.226;2023-02-19T15:46:43;0.00;;;0.00;;
21643;SDS011;10983;51.982;9.226;2023-02-19T15:49:13;0.00;;;0.00;;
21643;SDS011;10983;51.982;9.226;2023-02-19T15:51:47;0.20;;;0.20;;
21643;SDS011;10983;51.982;9.226;2023-02-19T15:54:21;0.25;;;0.25;;
21643;SDS011;10983;51.982;9.226;2023-02-19T15:56:53;0.13;;;0.13;;
21643;SDS011;10983;51.982;9.226;2023-02-19T16:01:59;0.15;;;0.15;;
21643;SDS011;10983;51.982;9.226;2023-02-19T16:04:28;0.73;;;0.73;;